Time;durP1;ratioP1;P1;durP2;ratioP2;P2;SDS_P1;SDS_P2;PMS_P1;PMS_P2;Temp;Humidity;BMP_temperature;BMP_pressure;BME280_temperature;BME280_humidity;BME280_pressure;Samples;Min_cycle;Max_cycle;Signal;HPM_P1;HPM_P2
2022/03/16 00:00:19;;;;;;;40.40;19.57;;;;;;;2.02;100.00;102331.91;4993259;28;20133;-86
2022/03/16 00:02:46;;;;;;;40.03;19.00;;;;;;;1.97;100.00;102326.25;4993070;28;20034;-87
2022/03/16 00:05:12;;;;;;;35.15;18.55;;;;;;;1.91;100.00;102324.28;4979100;28;20041;-86
2022/03/16 00:07:37;;;;;;;38.00;18.05;;;;;;;1.87;100.00;102321.13;4974197;28;20109;-86
2022/03/16 00:10:04;;;;;;;37.07;18.27;;;;;;;1.83;100.00;102317.16;4984779;28;20037;-86
2022/03/16 00:12:30;;;;;;;39.63;19.25;;;;;;;1.80;100.00;102318.31;4981334;28;20027;-85
2022/03/16 00:14:55;;;;;;;38.73;19.23;;;;;;;1.81;100.00;102327.91;4956910;28;20113;-85
2022/03/16 00:17:21;;;;;;;38.22;18.67;;;;;;;1.77;100.00;102321.28;4973034;28;20038;-85
2022/03/16 00:19:46;;;;;;;38.33;18.60;;;;;;;1.73;100.00;102322.59;4979065;28;20036;-85
2022/03/16 00:22:12;;;;;;;36.60;18.20;;;;;;;1.72;100.00;102330.69;4969143;28;20026;-85
2022/03/16 00:24:37;;;;;;;40.58;18.75;;;;;;;1.66;100.00;102329.53;4989328;28;20092;-85
2022/03/16 00:27:03;;;;;;;40.53;18.83;;;;;;;1.63;100.00;102321.91;4992820;28;20077;-85
2022/03/16 00:29:29;;;;;;;38.38;18.65;;;;;;;1.60;100.00;102322.22;4984212;28;20037;-85
2022/03/16 00:31:54;;;;;;;38.53;18.93;;;;;;;1.59;100.00;102329.34;4992867;28;20104;-86
2022/03/16 00:34:19;;;;;;;39.80;18.43;;;;;;;1.59;100.00;102328.50;4979506;28;20093;-85
2022/03/16 00:36:45;;;;;;;37.30;17.83;;;;;;;1.57;100.00;102330.47;4992345;28;20688;-86
2022/03/16 00:39:11;;;;;;;36.10;17.10;;;;;;;1.52;100.00;102325.66;4968163;28;20623;-85
2022/03/16 00:41:37;;;;;;;36.37;17.83;;;;;;;1.46;100.00;102336.91;4955992;28;20340;-85
2022/03/16 00:44:05;;;;;;;40.57;18.63;;;;;;;1.42;100.00;102328.44;4959985;28;20381;-85
2022/03/16 00:46:31;;;;;;;37.47;18.40;;;;;;;1.40;100.00;102326.97;4973230;28;20372;-85
2022/03/16 00:48:57;;;;;;;39.22;18.52;;;;;;;1.41;100.00;102328.63;4989543;28;20106;-85
2022/03/16 00:51:23;;;;;;;41.07;19.40;;;;;;;1.35;100.00;102327.44;4991018;28;20035;-86
2022/03/16 00:53:50;;;;;;;41.97;19.63;;;;;;;1.36;100.00;102323.81;4993177;28;20026;-85
2022/03/16 00:56:16;;;;;;;43.45;19.63;;;;;;;1.35;100.00;102327.44;4999948;28;20034;-85
2022/03/16 00:58:41;;;;;;;39.10;19.00;;;;;;;1.31;100.00;102323.47;4992597;28;20504;-85
2022/03/16 01:01:08;;;;;;;39.33;19.73;;;;;;;1.29;100.00;102320.97;4989886;28;20054;-85
2022/03/16 01:03:34;;;;;;;39.90;19.97;;;;;;;1.30;100.00;102324.44;4974599;28;20705;-85
2022/03/16 01:06:01;;;;;;;42.20;18.30;;;;;;;1.25;100.00;102319.66;4990308;28;20380;-85
2022/03/16 01:08:26;;;;;;;40.08;18.90;;;;;;;1.24;100.00;102325.91;4991686;28;20045;-85
2022/03/16 01:10:52;;;;;;;40.40;19.15;;;;;;;1.18;100.00;102316.81;4991644;28;20023;-85
2022/03/16 01:13:18;;;;;;;40.20;19.83;;;;;;;1.16;100.00;102302.94;4987947;28;20046;-85
2022/03/16 01:15:43;;;;;;;41.90;18.73;;;;;;;1.14;100.00;102311.97;4972471;28;20050;-85
2022/03/16 01:18:08;;;;;;;43.77;20.27;;;;;;;1.17;100.00;102315.16;4980839;28;20026;-86
2022/03/16 01:20:36;;;;;;;51.13;22.37;;;;;;;1.19;100.00;102310.53;4990819;28;20113;-85
2022/03/16 01:23:02;;;;;;;52.17;24.10;;;;;;;1.25;100.00;102306.44;4991117;28;20034;-85
2022/03/16 01:25:27;;;;;;;51.10;23.15;;;;;;;1.25;100.00;102301.16;4991971;28;20049;-85
2022/03/16 01:27:53;;;;;;;49.13;22.57;;;;;;;1.29;100.00;102309.59;4991913;28;20117;-87
2022/03/16 01:30:18;;;;;;;53.70;24.27;;;;;;;1.32;100.00;102306.63;4991918;28;20050;-87
2022/03/16 01:32:44;;;;;;;45.37;21.70;;;;;;;1.30;100.00;102306.78;4990791;28;20030;-87
2022/03/16 01:35:10;;;;;;;47.78;22.10;;;;;;;1.33;100.00;102311.75;4972829;28;20138;-87
2022/03/16 01:37:36;;;;;;;48.30;23.30;;;;;;;1.32;100.00;102299.50;4973362;28;20082;-88
2022/03/16 01:40:04;;;;;;;48.37;22.83;;;;;;;1.33;100.00;102303.00;4973138;28;20318;-86
2022/03/16 01:42:29;;;;;;;51.35;22.75;;;;;;;1.32;100.00;102299.50;4983430;28;20032;-87
2022/03/16 01:44:57;;;;;;;51.70;23.87;;;;;;;1.38;100.00;102302.50;4978010;28;20038;-87
2022/03/16 01:47:24;;;;;;;51.78;22.60;;;;;;;1.35;100.00;102299.19;4980094;28;20038;-88
2022/03/16 01:49:50;;;;;;;50.88;23.75;;;;;;;1.33;100.00;102290.59;4985164;28;20053;-87
2022/03/16 01:52:21;;;;;;;52.90;25.52;;;;;;;1.33;100.00;102281.88;4984605;28;20031;-88
2022/03/16 01:54:47;;;;;;;48.85;22.98;;;;;;;1.35;100.00;102280.72;4976744;28;20035;-88
2022/03/16 01:57:13;;;;;;;48.70;23.10;;;;;;;1.35;100.00;102275.44;4982036;28;20182;-89
2022/03/16 01:59:39;;;;;;;52.87;24.53;;;;;;;1.40;100.00;102266.19;4992458;28;20027;-88
2022/03/16 02:02:06;;;;;;;46.05;22.50;;;;;;;1.44;100.00;102275.47;4992842;28;20028;-87
2022/03/16 02:04:31;;;;;;;49.40;23.38;;;;;;;1.46;100.00;102270.84;4993153;28;20034;-87
2022/03/16 02:06:58;;;;;;;49.97;22.43;;;;;;;1.38;100.00;102276.91;4990337;28;20046;-88
2022/03/16 02:09:23;;;;;;;43.40;21.80;;;;;;;1.34;100.00;102272.97;4996275;28;20284;-87
2022/03/16 02:11:48;;;;;;;48.95;23.05;;;;;;;1.38;100.00;102258.41;4997736;28;20031;-86
2022/03/16 02:14:14;;;;;;;49.03;23.33;;;;;;;1.41;100.00;102259.94;4997133;28;20041;-87
2022/03/16 02:16:39;;;;;;;46.00;22.67;;;;;;;1.43;100.00;102265.88;4997811;28;20105;-87
2022/03/16 02:19:04;;;;;;;45.57;21.90;;;;;;;1.43;100.00;102263.25;4991934;28;20035;-88
2022/03/16 02:21:37;;;;;;;49.97;22.03;;;;;;;1.42;100.00;102243.91;4992567;28;20085;-87
2022/03/16 02:24:03;;;;;;;51.40;22.65;;;;;;;1.41;100.00;102252.81;4983249;28;20142;-87
2022/03/16 02:26:28;;;;;;;50.85;23.58;;;;;;;1.45;100.00;102245.41;4972519;28;20058;-88
2022/03/16 02:28:54;;;;;;;45.93;22.03;;;;;;;1.49;100.00;102255.50;4957238;28;20031;-87
2022/03/16 02:31:20;;;;;;;51.72;23.83;;;;;;;1.51;100.00;102261.44;4956291;28;20454;-87
2022/03/16 02:33:46;;;;;;;47.70;23.35;;;;;;;1.49;100.00;102266.06;4986843;28;20031;-87
2022/03/16 02:36:12;;;;;;;49.27;23.47;;;;;;;1.53;100.00;102263.91;4990171;28;20034;-87
2022/03/16 02:38:38;;;;;;;50.35;23.60;;;;;;;1.49;100.00;102257.28;4990925;28;20115;-86
2022/03/16 02:41:03;;;;;;;45.13;22.10;;;;;;;1.44;100.00;102259.63;5010550;28;20218;-88
2022/03/16 02:43:29;;;;;;;44.87;22.53;;;;;;;1.44;100.00;102260.44;4983627;28;20023;-87
2022/03/16 02:45:54;;;;;;;46.25;21.95;;;;;;;1.45;100.00;102259.44;4986416;28;20026;-87
2022/03/16 02:48:20;;;;;;;48.00;22.90;;;;;;;1.45;100.00;102262.09;4998835;28;20477;-87
2022/03/16 02:50:46;;;;;;;50.40;23.85;;;;;;;1.44;100.00;102259.63;4996101;28;20057;-86
2022/03/16 02:53:11;;;;;;;50.33;23.30;;;;;;;1.45;100.00;102264.72;4987208;28;20035;-86
2022/03/16 02:55:37;;;;;;;43.47;21.33;;;;;;;1.45;100.00;102261.28;4986414;28;20308;-86
2022/03/16 02:58:02;;;;;;;57.33;23.58;;;;;;;1.42;100.00;102258.94;4988889;28;20038;-88
2022/03/16 03:00:28;;;;;;;46.43;21.77;;;;;;;1.40;100.00;102256.44;4996073;28;20106;-87
2022/03/16 03:02:54;;;;;;;48.80;22.15;;;;;;;1.36;100.00;102244.56;4958311;28;20034;-87
2022/03/16 03:05:20;;;;;;;44.53;22.97;;;;;;;1.35;100.00;102238.44;4961809;28;20437;-87
2022/03/16 03:07:45;;;;;;;42.80;22.13;;;;;;;1.27;100.00;102233.16;4977298;28;20034;-87
2022/03/16 03:10:10;;;;;;;41.23;21.17;;;;;;;1.31;100.00;102245.03;4994282;28;20183;-87
2022/03/16 03:12:41;;;;;;;46.47;22.37;;;;;;;1.34;100.00;102239.44;4994813;28;20103;-87
2022/03/16 03:15:10;;;;;;;45.70;23.02;;;;;;;1.32;100.00;102246.69;4993499;28;20101;-87
2022/03/16 03:17:36;;;;;;;44.92;22.52;;;;;;;1.35;100.00;102246.38;4994108;28;20101;-87
2022/03/16 03:20:02;;;;;;;49.72;21.33;;;;;;;1.39;100.00;102241.59;4994652;28;20046;-87
2022/03/16 03:22:29;;;;;;;49.38;22.75;;;;;;;1.39;100.00;102238.94;4989949;28;20035;-87
2022/03/16 03:24:56;;;;;;;48.75;23.58;;;;;;;1.41;100.00;102244.09;4986549;28;20113;-88
2022/03/16 03:27:21;;;;;;;48.17;23.07;;;;;;;1.41;100.00;102241.44;4990538;28;20045;-88
2022/03/16 03:29:47;;;;;;;56.00;25.70;;;;;;;1.45;100.00;102243.59;4985344;28;20301;-87
2022/03/16 03:32:12;;;;;;;50.40;24.57;;;;;;;1.52;100.00;102251.69;4996045;28;20022;-87
2022/03/16 03:34:39;;;;;;;59.50;27.77;;;;;;;1.58;100.00;102255.50;4994752;28;20108;-87
2022/03/16 03:37:04;;;;;;;60.88;27.35;;;;;;;1.62;100.00;102254.19;5001513;28;20044;-87
2022/03/16 03:39:29;;;;;;;50.13;24.33;;;;;;;1.62;100.00;102251.53;5001200;28;20105;-87
2022/03/16 03:41:57;;;;;;;49.03;23.63;;;;;;;1.56;100.00;102254.81;4987294;28;20030;-87
2022/03/16 03:44:23;;;;;;;50.53;23.83;;;;;;;1.56;100.00;102255.66;4963391;28;20031;-88
2022/03/16 03:46:48;;;;;;;56.67;25.17;;;;;;;1.58;100.00;102256.34;4998131;28;20092;-86
2022/03/16 03:49:15;;;;;;;58.80;28.27;;;;;;;1.61;100.00;102256.00;4998246;28;20034;-87
2022/03/16 03:51:40;;;;;;;54.87;24.67;;;;;;;1.60;100.00;102257.00;4996222;28;20027;-87
2022/03/16 03:54:05;;;;;;;53.45;24.55;;;;;;;1.61;100.00;102245.44;4970648;28;20023;-87
2022/03/16 03:56:31;;;;;;;51.93;23.90;;;;;;;1.62;100.00;102252.38;4992473;28;20050;-87
2022/03/16 03:58:56;;;;;;;56.37;27.53;;;;;;;1.65;100.00;102257.31;4995241;28;20045;-87
2022/03/16 04:01:21;;;;;;;57.93;26.10;;;;;;;1.65;100.00;102249.38;4985129;28;20027;-87
2022/03/16 04:03:47;;;;;;;55.97;27.27;;;;;;;1.64;100.00;102254.84;4990584;28;20022;-87
2022/03/16 04:06:12;;;;;;;57.90;27.50;;;;;;;1.65;100.00;102254.69;4990005;28;20572;-87
2022/03/16 04:08:37;;;;;;;55.70;26.03;;;;;;;1.60;100.00;102251.72;4957613;28;20741;-86
2022/03/16 04:11:03;;;;;;;62.50;28.47;;;;;;;1.59;100.00;102252.72;4974918;28;20032;-87
2022/03/16 04:13:28;;;;;;;53.70;25.10;;;;;;;1.58;100.00;102245.78;4974797;28;20030;-87
2022/03/16 04:15:53;;;;;;;57.57;28.70;;;;;;;1.60;100.00;102240.31;4992573;28;20030;-87
2022/03/16 04:18:20;;;;;;;53.85;25.25;;;;;;;1.61;100.00;102239.31;4989073;28;20565;-87
2022/03/16 04:20:45;;;;;;;54.73;26.53;;;;;;;1.64;100.00;102239.81;4957097;28;20062;-87
2022/03/16 04:23:10;;;;;;;52.00;24.60;;;;;;;1.63;100.00;102234.69;4974566;28;20368;-86
2022/03/16 04:25:36;;;;;;;49.30;23.13;;;;;;;1.61;100.00;102236.69;4981355;28;21657;-87
2022/03/16 04:28:02;;;;;;;55.90;26.37;;;;;;;1.61;100.00;102245.44;4992893;28;20023;-85
2022/03/16 04:30:29;;;;;;;59.03;28.10;;;;;;;1.61;100.00;102237.53;4992070;28;20366;-85
2022/03/16 04:32:55;;;;;;;55.73;26.17;;;;;;;1.58;100.00;102243.13;4982155;28;20027;-85
2022/03/16 04:35:20;;;;;;;52.25;23.38;;;;;;;1.60;100.00;102232.38;4984408;28;20415;-84
2022/03/16 04:37:49;;;;;;;59.57;27.47;;;;;;;1.66;100.00;102237.84;4994602;28;20263;-84
2022/03/16 04:52:28;;;;;;;47.10;23.25;;;;;;;1.70;100.00;102229.59;5247066;23;20061;-84
2022/03/16 04:54:54;;;;;;;49.43;23.70;;;;;;;1.72;100.00;102235.53;4989117;28;20026;-83
2022/03/16 04:57:19;;;;;;;62.67;29.55;;;;;;;1.71;100.00;102224.16;4989952;28;20054;-83
2022/03/16 04:59:46;;;;;;;63.00;29.03;;;;;;;1.79;100.00;102224.13;4981492;28;20102;-84
2022/03/16 05:02:11;;;;;;;56.75;28.33;;;;;;;1.80;100.00;102227.63;4972593;28;20606;-85
2022/03/16 05:04:36;;;;;;;56.87;27.17;;;;;;;1.84;100.00;102233.41;4957750;28;20125;-84
2022/03/16 05:07:03;;;;;;;59.37;28.73;;;;;;;1.81;100.00;102230.09;4971586;28;20429;-84
2022/03/16 05:09:28;;;;;;;60.47;29.33;;;;;;;1.84;100.00;102239.50;5102132;23;20038;-83
2022/03/16 05:11:53;;;;;;;64.80;30.13;;;;;;;1.85;100.00;102240.34;5000417;28;20037;-85
2022/03/16 05:14:19;;;;;;;81.85;39.58;;;;;;;1.94;100.00;102240.19;4999789;28;20033;-84
2022/03/16 05:16:45;;;;;;;78.27;34.90;;;;;;;1.98;100.00;102240.66;5010828;28;20176;-85
2022/03/16 05:19:10;;;;;;;65.93;30.52;;;;;;;1.95;100.00;102244.47;5004254;28;20034;-86
2022/03/16 05:21:35;;;;;;;60.83;28.07;;;;;;;1.95;100.00;102238.34;4992515;28;20033;-85
2022/03/16 05:24:01;;;;;;;72.13;31.63;;;;;;;2.02;100.00;102241.16;4988050;28;20055;-85
2022/03/16 05:26:26;;;;;;;64.73;30.57;;;;;;;2.01;100.00;102239.53;4989643;28;20089;-86
2022/03/16 05:28:52;;;;;;;59.47;28.77;;;;;;;2.00;100.00;102229.94;4987978;28;20026;-87
2022/03/16 05:31:19;;;;;;;63.13;29.40;;;;;;;1.98;100.00;102230.09;4990103;28;20397;-87
2022/03/16 05:33:47;;;;;;;59.03;28.60;;;;;;;1.96;100.00;102214.41;4989542;28;20030;-87
2022/03/16 05:36:12;;;;;;;52.80;25.42;;;;;;;1.99;100.00;102226.47;4977356;28;20018;-88
2022/03/16 05:38:37;;;;;;;52.27;24.30;;;;;;;1.91;100.00;102218.53;4989659;28;20023;-86
2022/03/16 05:41:02;;;;;;;51.43;24.07;;;;;;;1.92;100.00;102206.94;4987550;28;20026;-87
2022/03/16 05:43:28;;;;;;;59.50;26.73;;;;;;;1.90;100.00;102217.69;4988902;28;20105;-89
2022/03/16 05:45:53;;;;;;;52.97;25.27;;;;;;;1.93;100.00;102217.38;4974942;28;20053;-88
2022/03/16 05:48:18;;;;;;;50.47;24.55;;;;;;;1.99;100.00;102220.34;4991751;28;20038;-88
2022/03/16 05:50:47;;;;;;;53.77;26.03;;;;;;;1.94;100.00;102220.81;5002505;28;20053;-87
2022/03/16 05:53:14;;;;;;;59.87;29.17;;;;;;;1.98;100.00;102219.50;4969534;28;20069;-88
2022/03/16 05:55:39;;;;;;;49.63;23.60;;;;;;;1.96;100.00;102226.78;4973671;28;20297;-89
2022/03/16 05:58:05;;;;;;;61.65;26.20;;;;;;;1.96;100.00;102219.69;4989717;28;20030;-88
2022/03/16 06:00:31;;;;;;;57.37;26.90;;;;;;;2.03;100.00;102234.88;4990833;28;20104;-89
2022/03/16 06:02:57;;;;;;;51.38;24.17;;;;;;;2.01;100.00;102229.75;4987680;28;20022;-88
2022/03/16 06:05:22;;;;;;;57.35;25.65;;;;;;;2.00;100.00;102236.03;4990185;28;20041;-88
2022/03/16 06:07:48;;;;;;;58.03;25.73;;;;;;;2.03;100.00;102241.00;4991480;28;20026;-88
2022/03/16 06:10:17;;;;;;;55.30;25.60;;;;;;;2.11;100.00;102242.81;4990832;28;20030;-87
2022/03/16 06:12:58;;;;;;;50.50;22.75;;;;;;;2.11;100.00;102243.63;4992279;28;20073;-88
2022/03/16 06:15:25;;;;;;;52.45;23.38;;;;;;;2.18;100.00;102238.53;4992503;28;20082;-87
2022/03/16 06:17:54;;;;;;;50.35;22.92;;;;;;;2.26;100.00;102243.78;4978503;28;20023;-88
2022/03/16 06:20:20;;;;;;;55.43;23.60;;;;;;;2.32;100.00;102247.56;4984195;28;20049;-87
2022/03/16 06:22:45;;;;;;;47.83;23.47;;;;;;;2.34;100.00;102247.44;4991815;28;21057;-88
2022/03/16 06:25:11;;;;;;;52.67;22.00;;;;;;;2.31;100.00;102248.56;4991248;28;20401;-86
2022/03/16 06:27:36;;;;;;;45.73;21.53;;;;;;;2.35;100.00;102251.72;4990785;28;20528;-86
2022/03/16 06:30:02;;;;;;;41.17;19.67;;;;;;;2.39;100.00;102253.03;4988061;28;20022;-87
2022/03/16 06:32:28;;;;;;;44.73;20.83;;;;;;;2.42;100.00;102255.34;4985844;28;20062;-85
2022/03/16 06:34:54;;;;;;;41.75;19.85;;;;;;;2.44;100.00;102256.00;4985480;28;20022;-86
2022/03/16 06:37:19;;;;;;;38.77;16.97;;;;;;;2.45;100.00;102256.84;4990749;28;20097;-88
2022/03/16 06:39:44;;;;;;;37.70;17.73;;;;;;;2.49;100.00;102255.50;4987908;28;20467;-84
2022/03/16 06:42:10;;;;;;;39.30;17.88;;;;;;;2.54;100.00;102255.81;4986463;28;20034;-91
2022/03/16 06:44:35;;;;;;;34.03;16.37;;;;;;;2.56;100.00;102256.47;4993606;28;20030;-89
2022/03/16 06:47:01;;;;;;;41.70;18.73;;;;;;;2.60;100.00;102249.00;4993001;28;20034;-90
2022/03/16 06:49:26;;;;;;;38.95;17.73;;;;;;;2.67;100.00;102260.59;4991016;28;20022;-89
2022/03/16 06:51:55;;;;;;;36.43;18.43;;;;;;;2.71;100.00;102249.47;4990962;28;20039;-88
2022/03/16 06:54:20;;;;;;;39.97;19.20;;;;;;;2.81;100.00;102246.63;4974890;28;20405;-94
2022/03/16 06:56:45;;;;;;;40.43;18.40;;;;;;;2.88;100.00;102239.69;4996585;28;20026;-91
2022/03/16 06:59:10;;;;;;;29.17;15.13;;;;;;;2.97;100.00;102236.97;4985231;28;20045;-92
2022/03/16 07:01:37;;;;;;;37.13;17.83;;;;;;;3.07;100.00;102224.38;5007252;28;20032;-90
2022/03/16 07:04:03;;;;;;;38.50;17.98;;;;;;;3.15;100.00;102220.84;5015505;28;20043;-92
2022/03/16 07:06:29;;;;;;;34.42;16.65;;;;;;;3.17;100.00;102214.38;5009797;28;20030;-91
2022/03/16 07:08:54;;;;;;;32.80;15.90;;;;;;;3.19;100.00;102216.88;4994582;28;20044;-94
2022/03/16 07:11:19;;;;;;;32.20;16.08;;;;;;;3.25;100.00;102212.69;4992861;28;20026;-92
2022/03/16 07:16:29;;;;;;;32.97;16.60;;;;;;;3.39;100.00;102219.03;4998083;28;20057;-92
2022/03/16 07:54:40;;;;;;;21.02;12.27;;;;;;;5.34;100.00;102197.94;5360668;23;20096;-93
2022/03/16 08:04:41;;;;;;;27.20;14.32;;;;;;;5.88;97.47;102202.72;4951700;29;20051;-93
2022/03/16 08:07:37;;;;;;;20.80;12.07;;;;;;;5.96;96.18;102211.59;4945043;29;20047;-92
2022/03/16 08:11:00;;;;;;;21.92;12.82;;;;;;;5.89;94.56;102188.41;4986205;28;20034;-94
2022/03/16 08:17:40;;;;;;;20.33;11.57;;;;;;;6.19;94.75;102208.72;4921376;29;20068;-94
2022/03/16 08:30:10;;;;;;;20.40;11.43;;;;;;;6.30;92.16;102191.41;5433395;23;20041;-94
2022/03/16 08:36:47;;;;;;;21.80;11.70;;;;;;;6.50;92.19;102199.50;5257246;23;20183;-95
2022/03/16 08:39:25;;;;;;;21.10;11.13;;;;;;;6.56;90.92;102197.91;5042892;28;20042;-95
2022/03/16 08:51:50;;;;;;;19.42;11.80;;;;;;;6.88;88.41;102212.38;6127662;23;20031;-94
2022/03/16 08:54:41;;;;;;;20.83;12.30;;;;;;;6.95;88.75;102210.56;5003253;28;20050;-94
2022/03/16 08:57:16;;;;;;;24.27;12.80;;;;;;;6.92;88.35;102207.50;4979949;28;20030;-89
2022/03/16 08:59:42;;;;;;;17.95;10.10;;;;;;;6.97;87.92;102202.38;4995668;28;20027;-87
2022/03/16 09:05:38;;;;;;;23.10;11.00;;;;;;;7.09;86.81;102205.28;4996225;28;20523;-86
2022/03/16 09:10:51;;;;;;;20.75;13.52;;;;;;;7.31;86.74;102210.47;4997102;28;20050;-90
2022/03/16 09:13:22;;;;;;;21.67;13.02;;;;;;;7.47;84.92;102206.63;4992401;28;20054;-91
2022/03/16 09:19:27;;;;;;;23.85;11.75;;;;;;;7.61;84.35;102200.25;4995432;28;20551;-92
2022/03/16 09:22:23;;;;;;;25.65;14.40;;;;;;;7.71;83.00;102208.69;4994944;28;20026;-92
2022/03/16 09:25:24;;;;;;;21.65;12.40;;;;;;;7.74;83.10;102207.47;4994810;28;20022;-92
2022/03/16 09:28:05;;;;;;;21.77;12.13;;;;;;;7.73;83.36;102203.97;4959128;28;20048;-92
2022/03/16 09:30:36;;;;;;;25.07;11.70;;;;;;;7.81;82.59;102194.91;4953714;28;20687;-92
2022/03/16 09:33:45;;;;;;;21.25;12.48;;;;;;;7.84;83.12;102191.03;4964566;28;20101;-91
2022/03/16 09:36:10;;;;;;;23.60;12.65;;;;;;;8.05;82.00;102208.69;5066418;23;20057;-90
2022/03/16 09:38:36;;;;;;;22.38;11.60;;;;;;;8.10;82.51;102203.53;5003930;28;20030;-94
2022/03/16 09:41:02;;;;;;;23.23;13.73;;;;;;;8.16;81.62;102200.03;4993857;28;20164;-91
2022/03/16 09:43:35;;;;;;;23.50;13.70;;;;;;;8.27;81.20;102203.91;4976346;28;20547;-91
2022/03/16 09:46:12;;;;;;;20.33;12.98;;;;;;;8.33;81.52;102203.09;4992159;28;20035;-92
2022/03/16 09:48:40;;;;;;;23.55;12.07;;;;;;;8.41;81.12;102206.56;4993105;28;20015;-93
2022/03/16 09:51:10;;;;;;;20.13;11.25;;;;;;;8.46;81.21;102191.56;4994189;28;20030;-90
2022/03/16 09:53:37;;;;;;;20.33;11.27;;;;;;;8.45;79.66;102192.59;4993281;28;20117;-89
2022/03/16 09:56:08;;;;;;;19.92;12.00;;;;;;;8.56;80.16;102196.50;4986785;28;20030;-86
2022/03/16 09:58:34;;;;;;;20.97;12.50;;;;;;;8.67;79.89;102194.19;4985607;23;20050;-87
2022/03/16 10:01:06;;;;;;;18.33;11.13;;;;;;;8.70;79.24;102185.75;4991517;28;20289;-88
2022/03/16 10:03:36;;;;;;;23.38;13.27;;;;;;;8.68;78.43;102179.78;4991335;28;20104;-86
2022/03/16 10:14:38;;;;;;;22.25;11.43;;;;;;;9.04;77.45;102179.19;4992785;28;20405;-90
2022/03/16 10:20:06;;;;;;;22.88;12.15;;;;;;;9.13;76.47;102163.72;4992767;28;20202;-88
2022/03/16 10:23:20;;;;;;;23.08;11.57;;;;;;;9.10;76.99;102169.53;4983473;28;20058;-88
2022/03/16 10:25:51;;;;;;;19.88;11.27;;;;;;;9.27;76.41;102185.88;4991917;28;20053;-88
2022/03/16 10:28:20;;;;;;;21.40;11.77;;;;;;;9.33;76.61;102181.50;4994964;28;20022;-88
2022/03/16 10:30:55;;;;;;;22.40;12.07;;;;;;;9.45;76.54;102184.31;4992007;28;20983;-88
2022/03/16 10:33:26;;;;;;;18.90;10.70;;;;;;;9.54;76.32;102191.06;4988636;28;20035;-87
2022/03/16 10:36:10;;;;;;;20.77;11.63;;;;;;;9.68;76.16;102189.91;4976843;28;20053;-86
2022/03/16 10:38:44;;;;;;;20.30;12.52;;;;;;;9.74;75.43;102182.84;4975827;28;20097;-84
2022/03/16 10:46:34;;;;;;;17.90;11.85;;;;;;;9.83;75.63;102180.72;4972443;28;20039;-85
2022/03/16 10:46:54;;;;;;;19.08;10.68;;;;;;;10.07;75.64;102171.00;4991576;28;20433;-86
2022/03/16 10:49:22;;;;;;;15.85;11.13;;;;;;;10.33;74.32;102176.31;4978175;28;20226;-86
2022/03/16 10:52:05;;;;;;;16.53;11.03;;;;;;;10.56;73.96;102167.66;4971113;28;20026;-85
2022/03/16 10:54:32;;;;;;;17.00;10.80;;;;;;;10.67;72.55;102158.84;4954738;28;20869;-85
2022/03/16 10:57:01;;;;;;;17.58;10.55;;;;;;;10.75;72.21;102155.88;4951027;28;20120;-86
2022/03/16 10:59:30;;;;;;;17.27;10.93;;;;;;;10.91;72.29;102158.94;4970148;28;20069;-87
2022/03/16 11:02:01;;;;;;;14.80;9.80;;;;;;;11.01;70.55;102161.91;4971098;28;20050;-86
2022/03/16 11:04:28;;;;;;;18.55;11.40;;;;;;;10.99;71.01;102155.13;4988272;28;20154;-87
2022/03/16 11:06:54;;;;;;;17.42;10.93;;;;;;;11.10;71.00;102166.94;4972189;28;20019;-87
2022/03/16 11:09:20;;;;;;;16.10;10.13;;;;;;;11.26;70.98;102163.63;4975643;28;20034;-87
2022/03/16 11:14:30;;;;;;;16.25;10.25;;;;;;;11.28;68.79;102152.63;4986611;28;20102;-88
2022/03/16 11:16:56;;;;;;;14.35;9.57;;;;;;;11.37;69.24;102159.31;4992724;28;20054;-90
2022/03/16 11:19:24;;;;;;;16.15;9.73;;;;;;;11.45;69.06;102156.28;4989480;28;20030;-93
2022/03/16 11:22:21;;;;;;;15.13;10.70;;;;;;;11.43;68.99;102161.06;4997481;28;20037;-86
2022/03/16 11:24:50;;;;;;;17.05;9.73;;;;;;;11.59;68.72;102164.16;4981670;28;20385;-88
2022/03/16 11:37:11;;;;;;;15.25;9.13;;;;;;;12.52;66.62;102150.06;4957037;28;20055;-92
2022/03/16 11:40:26;;;;;;;15.02;9.35;;;;;;;12.80;64.52;102165.38;4997723;28;20108;-92
2022/03/16 11:43:04;;;;;;;14.45;9.60;;;;;;;13.05;64.10;102168.81;5008737;28;20129;-91
2022/03/16 11:45:50;;;;;;;13.23;9.38;;;;;;;13.02;63.98;102167.41;5016746;28;20033;-92
2022/03/16 11:48:37;;;;;;;13.70;9.80;;;;;;;12.97;64.36;102170.00;4997226;28;20034;-92
2022/03/16 11:51:06;;;;;;;16.77;10.03;;;;;;;12.86;63.68;102167.13;5020485;28;20297;-88
2022/03/16 11:54:00;;;;;;;15.75;10.00;;;;;;;13.01;64.50;102172.00;4997702;28;20612;-89
2022/03/16 11:56:42;;;;;;;15.57;8.50;;;;;;;13.05;64.30;102172.31;5012111;28;20493;-89
2022/03/16 11:59:22;;;;;;;16.52;10.15;;;;;;;12.99;63.98;102170.56;5014821;28;20034;-89
2022/03/16 12:01:52;;;;;;;13.25;9.30;;;;;;;13.02;63.55;102170.09;4992820;28;20034;-87
2022/03/16 12:04:32;;;;;;;12.02;8.77;;;;;;;13.04;64.20;102168.00;4995088;28;20085;-89
2022/03/16 12:07:11;;;;;;;13.60;8.40;;;;;;;13.03;62.92;102164.50;4996657;28;20429;-89
2022/03/16 12:09:53;;;;;;;15.45;10.05;;;;;;;13.12;63.76;102161.41;5013360;28;20074;-88
2022/03/16 12:15:41;;;;;;;15.80;9.63;;;;;;;13.39;63.06;102160.78;5006346;28;20155;-88
2022/03/16 12:18:15;;;;;;;12.97;9.43;;;;;;;13.53;62.16;102153.22;4992003;28;20381;-89
2022/03/16 12:20:42;;;;;;;15.10;8.80;;;;;;;13.69;61.76;102149.72;5012894;28;20045;-89
2022/03/16 12:23:41;;;;;;;13.85;9.60;;;;;;;13.70;61.11;102145.94;5013472;28;20454;-90
2022/03/16 12:26:07;;;;;;;15.63;9.75;;;;;;;13.67;60.89;102137.53;5013919;28;20080;-89
2022/03/16 12:31:19;;;;;;;16.20;10.20;;;;;;;13.71;61.13;102142.19;5013518;28;20631;-89
2022/03/16 12:33:48;;;;;;;15.03;9.30;;;;;;;13.69;60.83;102141.63;4979827;28;20059;-88
2022/03/16 12:36:23;;;;;;;13.27;9.57;;;;;;;13.67;61.69;102132.97;5011858;28;20292;-88
2022/03/16 12:38:59;;;;;;;14.85;9.00;;;;;;;13.68;61.29;102134.63;5012957;28;20064;-88
2022/03/16 12:44:12;;;;;;;12.13;8.50;;;;;;;13.98;60.37;102124.50;4994331;28;20130;-90
2022/03/16 12:46:49;;;;;;;14.70;8.85;;;;;;;14.19;60.62;102120.19;5002204;28;20097;-89
2022/03/16 12:49:17;;;;;;;12.70;8.70;;;;;;;14.14;59.76;102115.56;5012879;28;20034;-90
2022/03/16 12:52:01;;;;;;;13.55;8.93;;;;;;;14.26;60.74;102123.50;4994123;28;20025;-90
2022/03/16 12:54:32;;;;;;;14.55;9.40;;;;;;;14.21;59.85;102110.78;5012520;28;20100;-90
2022/03/16 14:53:13;;;;;;;16.40;8.67;;;;;;;13.18;60.78;101921.72;5454814;23;20312;-95
2022/03/16 15:18:13;;;;;;;13.03;9.03;;;;;;;12.93;62.03;101919.47;5064887;23;20104;-95
2022/03/16 15:20:39;;;;;;;14.17;7.93;;;;;;;12.81;61.97;101898.06;5023268;28;20291;-93
2022/03/16 15:23:07;;;;;;;14.25;8.38;;;;;;;12.74;61.31;101894.75;5030447;28;20124;-95
2022/03/16 15:25:39;;;;;;;10.37;7.23;;;;;;;12.77;61.01;101902.31;5039527;28;20030;-93
2022/03/16 15:28:19;;;;;;;16.37;7.93;;;;;;;12.65;61.57;101902.41;5037786;28;20272;-95
2022/03/16 15:31:17;;;;;;;12.10;7.30;;;;;;;12.69;61.47;101889.28;5035865;28;20029;-95
2022/03/16 16:01:53;;;;;;;10.35;6.97;;;;;;;12.09;62.65;101921.09;4997986;28;20056;-93
2022/03/16 16:04:44;;;;;;;12.85;7.53;;;;;;;12.20;63.03;101927.44;4964300;28;20026;-95
2022/03/16 16:28:41;;;;;;;12.00;6.97;;;;;;;11.77;64.18;101919.69;6108148;23;20022;-96
2022/03/16 16:31:29;;;;;;;;;;;;;;;;;;;;;
2022/03/16 16:47:05;;;;;;;11.18;6.97;;;;;;;11.70;65.20;101899.38;5110069;23;20309;-91
2022/03/16 16:56:18;;;;;;;10.95;6.85;;;;;;;11.55;65.54;101879.22;5199981;23;20016;-91
2022/03/16 16:58:46;;;;;;;9.98;6.68;;;;;;;11.52;66.51;101874.34;5032544;28;20155;-91
2022/03/16 17:01:13;;;;;;;13.43;6.47;;;;;;;11.59;65.42;101883.06;5020909;28;20025;-90